createdAt,value
2022-11-21T00:00:59.095Z,95.73
2022-11-21T00:01:59.067Z,95.73
2022-11-21T00:02:59.040Z,95.73
2022-11-21T00:03:59.050Z,95.52
2022-11-21T00:04:59.026Z,95.52
2022-11-21T00:05:59.018Z,95.52
2022-11-21T00:06:59.069Z,95.52
2022-11-21T00:07:59.000Z,95.42
2022-11-21T00:08:58.980Z,95.42
2022-11-21T00:09:58.969Z,95.42
2022-11-21T00:10:58.959Z,95.52
2022-11-21T00:11:58.956Z,95.48
2022-11-21T00:12:58.947Z,95.52
2022-11-21T00:13:58.925Z,95.48
2022-11-21T00:14:58.921Z,95.48
2022-11-21T00:15:58.902Z,95.48
2022-11-21T00:16:58.928Z,95.48
2022-11-21T00:17:58.882Z,95.37
2022-11-21T00:18:58.881Z,95.48
2022-11-21T00:19:58.859Z,95.48
2022-11-21T00:20:58.851Z,95.48
2022-11-21T00:21:58.836Z,95.48
2022-11-21T00:22:58.839Z,95.48
2022-11-21T00:23:58.846Z,95.48
2022-11-21T00:24:58.815Z,95.48
2022-11-21T00:25:58.793Z,95.48
2022-11-21T00:26:58.783Z,95.58
2022-11-21T00:27:58.782Z,95.58
2022-11-21T00:28:58.771Z,95.48
2022-11-21T00:29:58.748Z,95.37
2022-11-21T00:30:58.744Z,95.37
2022-11-21T00:31:58.728Z,95.37
2022-11-21T00:32:58.726Z,95.27
2022-11-21T00:33:58.710Z,95.37
2022-11-21T00:34:58.696Z,95.27
2022-11-21T00:35:58.683Z,95.17
2022-11-21T00:36:58.688Z,95.06
2022-11-21T00:37:58.662Z,95.06
2022-11-21T00:38:58.677Z,95.17
2022-11-21T00:39:58.646Z,95.17
2022-11-21T00:40:58.635Z,95.27
2022-11-21T00:41:58.622Z,95.27
2022-11-21T00:42:58.635Z,95.27
2022-11-21T00:43:58.631Z,95.17
2022-11-21T00:44:58.606Z,95.12
2022-11-21T00:45:58.580Z,95.12
2022-11-21T00:46:58.566Z,95.01
2022-11-21T00:47:58.551Z,95.01
2022-11-21T00:48:58.565Z,94.91
2022-11-21T00:49:58.544Z,94.91
2022-11-21T00:50:58.585Z,94.91
2022-11-21T00:51:58.513Z,94.91
2022-11-21T00:52:58.513Z,94.81
2022-11-21T00:53:58.504Z,94.81
2022-11-21T00:54:58.505Z,94.81
2022-11-21T00:55:58.461Z,94.70
2022-11-21T00:56:58.461Z,94.60
2022-11-21T00:57:58.438Z,94.60
2022-11-21T00:58:58.444Z,94.49
2022-11-21T00:59:58.467Z,94.38
2022-11-21T01:00:58.447Z,94.38
2022-11-21T01:01:58.414Z,94.34
2022-11-21T01:02:58.408Z,94.34
2022-11-21T01:03:58.381Z,94.34
2022-11-21T01:04:58.382Z,94.45
2022-11-21T01:05:58.386Z,94.45
2022-11-21T01:06:58.549Z,94.34
2022-11-21T01:07:58.339Z,94.34
2022-11-21T01:08:58.337Z,94.24
2022-11-21T01:09:58.328Z,94.24
2022-11-21T01:10:58.317Z,94.24
2022-11-21T01:11:58.310Z,94.34
2022-11-21T01:12:58.294Z,94.45
2022-11-21T01:13:58.278Z,94.56
2022-11-21T01:14:58.269Z,94.66
2022-11-21T01:15:58.257Z,94.66
2022-11-21T01:16:58.271Z,94.76
2022-11-21T01:17:58.244Z,94.82
2022-11-21T01:18:58.237Z,94.82
2022-11-21T01:19:58.206Z,94.93
2022-11-21T01:20:58.202Z,94.93
2022-11-21T01:21:58.209Z,94.93
2022-11-21T01:22:58.213Z,94.82
2022-11-21T01:23:58.172Z,94.82
2022-11-21T01:24:58.178Z,94.82
2022-11-21T01:25:58.146Z,94.82
2022-11-21T01:26:58.152Z,94.72
2022-11-21T01:27:58.145Z,94.62
2022-11-21T01:28:58.131Z,94.40
2022-11-21T01:29:58.129Z,94.30
2022-11-21T01:30:58.111Z,94.20
2022-11-21T01:31:58.096Z,94.24
2022-11-21T01:32:58.086Z,94.34
2022-11-21T01:33:58.065Z,94.45
2022-11-21T01:34:58.062Z,94.56
2022-11-21T01:35:58.038Z,94.66
2022-11-21T01:36:58.050Z,94.87
2022-11-21T01:37:58.030Z,94.97
2022-11-21T01:38:58.027Z,94.97
2022-11-21T01:39:58.007Z,95.07
2022-11-21T01:40:58.003Z,95.18
2022-11-21T01:41:58.010Z,95.29
2022-11-21T01:42:57.981Z,95.29
2022-11-21T01:43:58.007Z,95.39
2022-11-21T01:44:57.957Z,95.39
2022-11-21T01:45:57.943Z,95.50
2022-11-21T01:46:57.942Z,95.50
2022-11-21T01:47:57.920Z,95.39
2022-11-21T01:48:57.919Z,95.39
2022-11-21T01:49:57.897Z,95.39
2022-11-21T01:50:57.904Z,95.50
2022-11-21T01:51:57.904Z,95.50
2022-11-21T01:52:57.868Z,95.50
2022-11-21T01:53:57.868Z,95.50
2022-11-21T01:54:57.839Z,95.50
2022-11-21T01:55:57.827Z,95.50
2022-11-21T01:56:57.829Z,95.50
2022-11-21T01:57:57.803Z,95.50
2022-11-21T01:58:57.820Z,95.50
2022-11-21T01:59:57.813Z,95.60
2022-11-21T02:00:57.835Z,95.50
2022-11-21T02:01:57.775Z,95.50
2022-11-21T02:02:57.753Z,95.50
2022-11-21T02:03:57.755Z,95.60
2022-11-21T02:04:57.752Z,95.70
2022-11-21T02:05:57.735Z,95.81
2022-11-21T02:06:57.741Z,95.92
2022-11-21T02:07:57.710Z,96.02
2022-11-21T02:08:57.712Z,95.98
2022-11-21T02:09:57.695Z,96.08
2022-11-21T02:10:57.688Z,96.08
2022-11-21T02:11:57.689Z,96.08
2022-11-21T02:12:57.671Z,96.19
2022-11-21T02:13:57.654Z,96.08
2022-11-21T02:14:57.630Z,96.08
2022-11-21T02:15:57.632Z,96.08
2022-11-21T02:16:57.610Z,96.08
2022-11-21T02:17:57.622Z,96.04
2022-11-21T02:18:57.587Z,96.04
2022-11-21T02:19:57.588Z,95.93
2022-11-21T02:20:57.588Z,95.93
2022-11-21T02:21:57.593Z,95.83
2022-11-21T02:22:57.561Z,95.83
2022-11-21T02:24:00.345Z,95.72
2022-11-21T02:24:57.523Z,95.72
2022-11-21T02:25:57.518Z,95.62
2022-11-21T02:26:57.528Z,95.62
2022-11-21T02:27:57.507Z,95.51
2022-11-21T02:28:57.513Z,95.51
2022-11-21T02:29:57.478Z,95.41
2022-11-21T02:30:57.454Z,95.41
2022-11-21T02:31:57.496Z,95.41
2022-11-21T02:32:57.442Z,95.31
2022-11-21T02:33:57.439Z,95.31
2022-11-21T02:34:57.420Z,95.20
2022-11-21T02:35:57.412Z,95.09
2022-11-21T02:36:57.396Z,95.09
2022-11-21T02:37:57.398Z,95.09
2022-11-21T02:38:57.384Z,94.99
2022-11-21T02:39:57.373Z,94.89
2022-11-21T02:40:57.360Z,94.78
2022-11-21T02:41:57.352Z,94.78
2022-11-21T02:42:57.358Z,94.68
2022-11-21T02:43:57.332Z,94.68
2022-11-21T02:44:57.312Z,94.68
2022-11-21T02:45:57.363Z,94.57
2022-11-21T02:46:57.292Z,94.46
2022-11-21T02:48:03.369Z,94.36
2022-11-21T02:48:57.285Z,94.26
2022-11-21T02:49:57.271Z,94.26
2022-11-21T02:50:57.248Z,94.26
2022-11-21T02:51:57.248Z,94.26
2022-11-21T02:52:57.245Z,94.15
2022-11-21T02:53:57.236Z,94.15
2022-11-21T02:54:57.217Z,94.15
2022-11-21T02:55:57.207Z,94.15
2022-11-21T02:56:57.190Z,94.15
2022-11-21T02:58:03.257Z,94.26
2022-11-21T02:58:57.169Z,94.26
2022-11-21T02:59:57.166Z,94.26
2022-11-21T03:00:57.187Z,94.26
2022-11-21T03:01:57.152Z,94.26
2022-11-21T03:02:57.116Z,94.15
2022-11-21T03:03:57.126Z,94.15
2022-11-21T03:04:57.106Z,94.15
2022-11-21T03:05:57.110Z,94.15
2022-11-21T03:06:57.081Z,94.15
2022-11-21T03:07:57.086Z,94.15
2022-11-21T03:08:57.066Z,94.15
2022-11-21T03:09:57.068Z,94.15
2022-11-21T03:10:57.051Z,94.15
2022-11-21T03:11:57.030Z,94.15
2022-11-21T03:12:57.009Z,94.26
2022-11-21T03:13:57.004Z,94.26
2022-11-21T03:14:56.990Z,94.26
2022-11-21T03:15:56.986Z,94.15
2022-11-21T03:16:56.984Z,94.15
2022-11-21T03:17:56.972Z,94.26
2022-11-21T03:18:56.951Z,94.26
2022-11-21T03:19:56.945Z,94.15
2022-11-21T03:20:56.932Z,94.15
2022-11-21T03:21:56.926Z,94.15
2022-11-21T03:22:56.909Z,94.15
2022-11-21T03:23:56.897Z,94.05
2022-11-21T03:24:56.877Z,94.05
2022-11-21T03:25:56.881Z,94.01
2022-11-21T03:26:56.893Z,94.01
2022-11-21T03:27:56.859Z,94.01
2022-11-21T03:28:56.844Z,94.01
2022-11-21T03:29:56.848Z,93.90
2022-11-21T03:30:56.835Z,93.90
2022-11-21T03:31:56.813Z,93.90
2022-11-21T03:32:56.827Z,93.90
2022-11-21T03:33:56.796Z,93.80
2022-11-21T03:34:56.783Z,93.70
2022-11-21T03:35:56.777Z,93.52
2022-11-21T03:36:56.760Z,93.52
2022-11-21T03:37:56.766Z,93.63
2022-11-21T03:38:56.746Z,93.74
2022-11-21T03:39:56.742Z,93.84
2022-11-21T03:40:56.724Z,93.84
2022-11-21T03:41:56.705Z,93.95
2022-11-21T03:42:56.716Z,94.05
2022-11-21T03:43:56.704Z,94.05
2022-11-21T03:44:56.690Z,94.15
2022-11-21T03:45:56.675Z,94.15
2022-11-21T03:46:56.642Z,94.26
2022-11-21T03:47:56.645Z,94.26
2022-11-21T03:48:56.641Z,94.40
2022-11-21T03:49:56.635Z,94.62
2022-11-21T03:50:56.613Z,94.72
2022-11-21T03:51:56.614Z,94.72
2022-11-21T03:52:56.588Z,94.82
2022-11-21T03:53:56.591Z,94.82
2022-11-21T03:54:56.573Z,94.93
2022-11-21T03:55:56.559Z,95.03
2022-11-21T03:56:56.545Z,95.03
2022-11-21T03:57:56.541Z,95.03
2022-11-21T03:58:56.537Z,95.14
2022-11-21T03:59:56.523Z,95.14
2022-11-21T04:00:56.505Z,95.14
2022-11-21T04:01:56.584Z,95.25
2022-11-21T04:02:56.489Z,95.25
2022-11-21T04:03:56.467Z,95.35
2022-11-21T04:04:56.468Z,95.45
2022-11-21T04:05:56.462Z,95.45
2022-11-21T04:06:56.435Z,95.45
2022-11-21T04:07:56.440Z,95.35
2022-11-21T04:08:56.424Z,95.35
2022-11-21T04:09:56.432Z,95.35
2022-11-21T04:10:56.429Z,95.45
2022-11-21T04:11:56.381Z,95.45
2022-11-21T04:12:56.380Z,95.45
2022-11-21T04:13:56.358Z,95.56
2022-11-21T04:14:56.364Z,95.56
2022-11-21T04:15:56.351Z,95.56
2022-11-21T04:16:56.338Z,95.56
2022-11-21T04:17:56.320Z,95.66
2022-11-21T04:18:56.320Z,95.56
2022-11-21T04:19:56.302Z,95.56
2022-11-21T04:20:56.302Z,95.66
2022-11-21T04:21:56.272Z,95.66
2022-11-21T04:22:56.268Z,95.76
2022-11-21T04:23:56.248Z,95.76
2022-11-21T04:24:56.258Z,95.76
2022-11-21T04:25:56.255Z,95.76
2022-11-21T04:26:56.259Z,95.62
2022-11-21T04:27:56.208Z,95.62
2022-11-21T04:28:56.209Z,95.62
2022-11-21T04:29:56.197Z,95.51
2022-11-21T04:30:58.311Z,95.20
2022-11-21T04:31:56.196Z,94.99
2022-11-21T04:32:56.158Z,94.89
2022-11-21T04:33:56.149Z,94.89
2022-11-21T04:34:56.154Z,94.89
2022-11-21T04:35:56.118Z,94.78
2022-11-21T04:36:56.165Z,94.78
2022-11-21T04:37:56.109Z,94.89
2022-11-21T04:38:56.097Z,94.78
2022-11-21T04:39:56.084Z,94.78
2022-11-21T04:40:56.082Z,94.78
2022-11-21T04:41:56.064Z,94.68
2022-11-21T04:42:56.079Z,94.57
2022-11-21T04:43:56.046Z,94.53
2022-11-21T04:44:56.033Z,94.53
2022-11-21T04:45:56.025Z,94.42
2022-11-21T04:46:56.825Z,94.32
2022-11-21T04:47:56.011Z,94.21
2022-11-21T04:48:55.998Z,94.21
2022-11-21T04:49:55.980Z,94.21
2022-11-21T04:50:55.977Z,94.21
2022-11-21T04:51:55.956Z,94.21
2022-11-21T04:52:55.974Z,94.21
2022-11-21T04:53:55.948Z,94.21
2022-11-21T04:54:55.919Z,94.21
2022-11-21T04:55:55.926Z,94.21
2022-11-21T04:56:55.902Z,94.21
2022-11-21T04:57:55.901Z,94.21
2022-11-21T04:58:55.901Z,94.21
2022-11-21T04:59:55.873Z,94.21
2022-11-21T05:00:55.925Z,94.11
2022-11-21T05:01:55.844Z,94.11
2022-11-21T05:02:55.836Z,94.01
2022-11-21T05:03:55.840Z,94.01
2022-11-21T05:04:55.822Z,94.01
2022-11-21T05:05:55.809Z,94.01
2022-11-21T05:06:55.803Z,93.90
2022-11-21T05:07:55.787Z,93.90
2022-11-21T05:08:55.782Z,93.90
2022-11-21T05:09:55.786Z,93.90
2022-11-21T05:10:55.745Z,93.86
2022-11-21T05:11:55.748Z,93.90
2022-11-21T05:12:55.731Z,93.76
2022-11-21T05:13:55.725Z,93.65
2022-11-21T05:14:55.715Z,93.70
2022-11-21T05:15:55.708Z,93.70
2022-11-21T05:16:55.684Z,93.70
2022-11-21T05:17:55.687Z,93.65
2022-11-21T05:18:55.671Z,93.65
2022-11-21T05:19:55.708Z,93.65
2022-11-21T05:20:55.646Z,93.65
2022-11-21T05:21:55.635Z,93.65
2022-11-21T05:22:55.628Z,93.65
2022-11-21T05:23:55.628Z,93.65
2022-11-21T05:24:55.611Z,93.65
2022-11-21T05:25:55.615Z,93.65
2022-11-21T05:26:55.587Z,93.76
2022-11-21T05:27:55.572Z,93.76
2022-11-21T05:28:55.565Z,93.76
2022-11-21T05:29:55.563Z,93.76
2022-11-21T05:30:55.566Z,93.76
2022-11-21T05:31:55.587Z,93.76
2022-11-21T05:32:55.518Z,93.65
2022-11-21T05:33:55.535Z,93.65
2022-11-21T05:34:55.493Z,93.65
2022-11-21T05:35:55.504Z,93.65
2022-11-21T05:36:55.481Z,93.44
2022-11-21T05:37:55.465Z,93.33
2022-11-21T05:38:55.462Z,93.33
2022-11-21T05:39:55.465Z,93.33
2022-11-21T05:40:55.446Z,93.33
2022-11-21T05:41:59.901Z,93.33
2022-11-21T05:42:55.425Z,93.33
2022-11-21T05:43:55.419Z,93.33
2022-11-21T05:44:55.396Z,93.33
2022-11-21T05:45:55.387Z,93.29
2022-11-21T05:46:55.369Z,93.29
2022-11-21T05:47:55.370Z,93.29
2022-11-21T05:48:55.339Z,93.29
2022-11-21T05:49:55.346Z,93.29
2022-11-21T05:50:55.312Z,93.29
2022-11-21T05:51:55.312Z,93.29
2022-11-21T05:52:55.316Z,93.29
2022-11-21T05:53:55.293Z,93.40
2022-11-21T05:54:55.305Z,93.40
2022-11-21T05:55:55.269Z,93.40
2022-11-21T05:56:55.270Z,93.40
2022-11-21T05:57:55.283Z,93.40
2022-11-21T05:58:55.252Z,93.29
2022-11-21T05:59:55.237Z,93.40
2022-11-21T06:00:59.523Z,93.40
2022-11-21T06:01:55.213Z,93.40
2022-11-21T06:02:55.261Z,93.40
2022-11-21T06:03:55.197Z,93.29
2022-11-21T06:04:55.174Z,93.29
2022-11-21T06:05:55.171Z,93.29
2022-11-21T06:06:55.151Z,93.29
2022-11-21T06:07:55.155Z,93.29
2022-11-21T06:08:55.150Z,93.29
2022-11-21T06:09:55.172Z,93.29
2022-11-21T06:10:55.105Z,93.29
2022-11-21T06:11:55.110Z,93.40
2022-11-21T06:12:55.076Z,93.40
2022-11-21T06:13:55.091Z,93.40
2022-11-21T06:14:55.070Z,93.40
2022-11-21T06:15:55.063Z,93.35
2022-11-21T06:16:55.044Z,93.35
2022-11-21T06:17:55.036Z,93.29
2022-11-21T06:18:58.353Z,93.25
2022-11-21T06:19:55.018Z,93.15
2022-11-21T06:20:55.000Z,93.04
2022-11-21T06:21:54.997Z,92.94
2022-11-21T06:22:54.979Z,92.98
2022-11-21T06:23:54.989Z,93.08
2022-11-21T06:24:54.951Z,93.19
2022-11-21T06:25:54.958Z,93.29
2022-11-21T06:26:54.950Z,93.40
2022-11-21T06:27:54.941Z,93.50
2022-11-21T06:28:54.921Z,93.50
2022-11-21T06:29:54.911Z,93.50
2022-11-21T06:30:54.895Z,93.46
2022-11-21T06:31:54.907Z,93.57
2022-11-21T06:32:54.897Z,93.46
2022-11-21T06:33:54.884Z,93.46
2022-11-21T06:34:54.858Z,93.46
2022-11-21T06:35:54.856Z,93.57
2022-11-21T06:36:54.831Z,93.57
2022-11-21T06:37:54.844Z,93.67
2022-11-21T06:38:54.823Z,93.67
2022-11-21T06:39:54.810Z,93.77
2022-11-21T06:40:54.796Z,93.77
2022-11-21T06:41:54.785Z,93.77
2022-11-21T06:42:54.772Z,93.77
2022-11-21T06:43:54.792Z,93.77
2022-11-21T06:44:54.744Z,93.88
2022-11-21T06:45:54.752Z,93.88
2022-11-21T06:46:54.737Z,93.77
2022-11-21T06:47:54.714Z,93.77
2022-11-21T06:48:54.718Z,93.77
2022-11-21T06:49:54.742Z,93.88
2022-11-21T06:50:54.683Z,93.88
2022-11-21T06:51:54.688Z,93.88
2022-11-21T06:52:54.655Z,93.77
2022-11-21T06:53:54.646Z,93.77
2022-11-21T06:54:54.643Z,93.67
2022-11-21T06:55:54.651Z,93.77
2022-11-21T06:56:54.634Z,93.77
2022-11-21T06:57:54.640Z,93.88
2022-11-21T06:58:54.592Z,93.88
2022-11-21T06:59:54.596Z,93.98
2022-11-21T07:00:54.650Z,93.98
2022-11-21T07:01:54.579Z,93.98
2022-11-21T07:02:57.594Z,93.98
2022-11-21T07:03:54.567Z,93.88
2022-11-21T07:04:54.529Z,93.88
2022-11-21T07:05:54.536Z,93.88
2022-11-21T07:06:54.504Z,93.88
2022-11-21T07:07:54.615Z,93.77
2022-11-21T07:09:17.441Z,93.67
2022-11-21T07:09:54.494Z,93.67
2022-11-21T07:11:23.004Z,93.67
2022-11-21T07:11:54.466Z,93.67
2022-11-21T07:12:54.453Z,93.67
2022-11-21T07:13:54.455Z,93.67
2022-11-21T07:14:54.428Z,93.77
2022-11-21T07:15:54.412Z,93.77
2022-11-21T07:16:54.413Z,93.77
2022-11-21T07:17:54.416Z,93.77
2022-11-21T07:18:54.409Z,93.77
2022-11-21T07:19:54.367Z,93.77
2022-11-21T07:20:54.382Z,93.88
2022-11-21T07:21:54.353Z,93.88
2022-11-21T07:22:54.376Z,93.98
2022-11-21T07:23:54.345Z,93.98
2022-11-21T07:24:54.321Z,93.98
2022-11-21T07:25:54.306Z,93.98
2022-11-21T07:26:54.296Z,94.09
2022-11-21T07:27:54.288Z,94.19
2022-11-21T07:28:54.545Z,94.29
2022-11-21T07:29:54.270Z,94.29
2022-11-21T07:30:54.250Z,94.29
2022-11-21T07:31:54.261Z,94.29
2022-11-21T07:32:54.233Z,94.40
2022-11-21T07:33:54.220Z,94.40
2022-11-21T07:34:54.250Z,94.40
2022-11-21T07:35:54.224Z,94.40
2022-11-21T07:36:54.217Z,94.29
2022-11-21T07:37:54.179Z,94.29
2022-11-21T07:38:54.162Z,94.29
2022-11-21T07:39:54.164Z,94.29
2022-11-21T07:40:54.164Z,94.29
2022-11-21T07:41:54.158Z,94.29
2022-11-21T07:42:54.125Z,94.40
2022-11-21T07:43:54.122Z,94.40
2022-11-21T07:44:54.099Z,94.40
2022-11-21T07:45:54.146Z,94.29
2022-11-21T07:46:54.079Z,94.29
2022-11-21T07:47:54.083Z,94.19
2022-11-21T07:48:54.068Z,94.19
2022-11-21T07:49:54.065Z,94.29
2022-11-21T07:50:54.121Z,94.29
2022-11-21T07:51:54.060Z,94.40
2022-11-21T07:52:54.018Z,94.40
2022-11-21T07:53:54.018Z,94.50
2022-11-21T07:54:53.999Z,94.61
2022-11-21T07:55:54.005Z,94.71
2022-11-21T07:56:54.000Z,94.71
2022-11-21T07:57:53.995Z,94.82
2022-11-21T07:58:54.026Z,94.82
2022-11-21T07:59:53.968Z,94.92
2022-11-21T08:00:53.937Z,94.92
2022-11-21T08:01:54.003Z,94.92
2022-11-21T08:02:53.921Z,94.92
2022-11-21T08:03:53.920Z,94.92
2022-11-21T08:04:53.957Z,94.92
2022-11-21T08:05:53.898Z,94.92
2022-11-21T08:06:53.879Z,94.82
2022-11-21T08:07:54.693Z,94.82
2022-11-21T08:08:53.857Z,94.82
2022-11-21T08:09:53.843Z,94.82
2022-11-21T08:10:53.841Z,94.82
2022-11-21T08:11:53.833Z,94.82
2022-11-21T08:12:53.823Z,94.61
2022-11-21T08:13:53.811Z,94.61
2022-11-21T08:14:53.812Z,94.50
2022-11-21T08:15:53.782Z,94.19
2022-11-21T08:16:53.767Z,94.02
2022-11-21T08:17:53.921Z,94.02
2022-11-21T08:18:53.753Z,94.02
2022-11-21T08:19:53.747Z,94.27
2022-11-21T08:20:53.733Z,94.38
2022-11-21T08:21:53.729Z,94.49
2022-11-21T08:22:53.708Z,94.59
2022-11-21T08:23:53.718Z,94.80
2022-11-21T08:24:53.685Z,94.80
2022-11-21T08:25:53.670Z,94.80
2022-11-21T08:26:53.670Z,94.70
2022-11-21T08:27:53.663Z,94.59
2022-11-21T08:28:59.627Z,94.49
2022-11-21T08:29:53.676Z,94.38
2022-11-21T08:30:53.624Z,94.38
2022-11-21T08:31:53.645Z,94.38
2022-11-21T08:32:53.654Z,94.27
2022-11-21T08:33:53.665Z,94.17
2022-11-21T08:34:53.595Z,94.17
2022-11-21T08:35:53.602Z,94.27
2022-11-21T08:36:53.562Z,93.96
2022-11-21T08:37:53.681Z,94.01
2022-11-21T08:38:53.540Z,94.11
2022-11-21T08:39:53.525Z,94.32
2022-11-21T08:40:53.683Z,94.42
2022-11-21T08:41:53.531Z,94.64
2022-11-21T08:42:53.510Z,94.53
2022-11-21T08:43:53.474Z,94.64
2022-11-21T08:44:53.471Z,94.64
2022-11-21T08:45:53.482Z,94.74
2022-11-21T08:46:53.488Z,94.74
2022-11-21T08:47:53.450Z,94.80
2022-11-21T08:48:53.434Z,94.74
2022-11-21T08:49:53.418Z,94.70
2022-11-21T08:50:53.415Z,94.59
2022-11-21T08:51:53.400Z,94.49
2022-11-21T08:52:53.388Z,94.32
2022-11-21T08:53:53.397Z,94.27
2022-11-21T08:54:53.372Z,94.21
2022-11-21T08:55:53.366Z,94.11
2022-11-21T08:56:54.003Z,94.11
2022-11-21T08:57:53.342Z,94.21
2022-11-21T08:58:53.329Z,94.21
2022-11-21T08:59:53.320Z,94.32
2022-11-21T09:00:53.330Z,94.21
2022-11-21T09:01:53.343Z,94.11
2022-11-21T09:02:53.278Z,94.21
2022-11-21T09:03:53.283Z,94.32
2022-11-21T09:04:53.248Z,94.42
2022-11-21T09:05:53.256Z,94.42
2022-11-21T09:06:53.240Z,94.42
2022-11-21T09:07:53.224Z,94.42
2022-11-21T09:08:53.210Z,94.32
2022-11-21T09:09:53.196Z,94.46
2022-11-21T09:10:53.196Z,94.57
2022-11-21T09:11:53.196Z,94.78
2022-11-21T09:12:53.183Z,94.84
2022-11-21T09:13:53.158Z,94.78
2022-11-21T09:14:53.153Z,94.78
2022-11-21T09:15:53.151Z,94.89
2022-11-21T09:16:55.777Z,94.89
2022-11-21T09:17:53.144Z,94.89
2022-11-21T09:18:53.108Z,94.89
2022-11-21T09:19:53.098Z,94.89
2022-11-21T09:20:53.085Z,94.78
2022-11-21T09:21:53.099Z,94.89
2022-11-21T09:22:53.079Z,94.89
2022-11-21T09:23:54.003Z,94.78
2022-11-21T09:24:53.043Z,94.78
2022-11-21T09:25:53.024Z,94.78
2022-11-21T09:26:53.018Z,94.68
2022-11-21T09:27:53.017Z,94.68
2022-11-21T09:28:53.105Z,94.57
2022-11-21T09:29:54.382Z,94.57
2022-11-21T09:30:52.994Z,94.51
2022-11-21T09:31:52.978Z,94.62
2022-11-21T09:32:52.966Z,94.51
2022-11-21T09:33:55.136Z,94.51
2022-11-21T09:34:52.940Z,94.51
2022-11-21T09:35:52.922Z,94.72
2022-11-21T09:36:52.919Z,94.82
2022-11-21T09:37:52.967Z,94.93
2022-11-21T09:38:52.907Z,95.03
2022-11-21T09:39:52.882Z,95.14
2022-11-21T09:40:52.888Z,95.03
2022-11-21T09:41:52.903Z,94.72
2022-11-21T09:42:52.860Z,94.62
2022-11-21T09:43:55.736Z,94.51
2022-11-21T09:44:52.847Z,94.40
2022-11-21T09:45:52.806Z,94.30
2022-11-21T09:46:52.819Z,94.09
2022-11-21T09:47:52.822Z,93.78
2022-11-21T09:48:52.804Z,93.57
2022-11-21T09:49:52.785Z,93.36
2022-11-21T09:50:54.192Z,93.51
2022-11-21T09:51:52.761Z,93.61
2022-11-21T09:52:52.751Z,93.61
2022-11-21T09:53:52.737Z,93.61
2022-11-21T09:54:52.727Z,93.71
2022-11-21T09:55:52.708Z,93.82
2022-11-21T09:56:52.715Z,94.13
2022-11-21T09:57:52.679Z,94.45
2022-11-21T09:58:52.681Z,94.45
2022-11-21T09:59:52.658Z,94.34
2022-11-21T10:00:52.735Z,94.13
2022-11-21T10:01:52.667Z,94.13
2022-11-21T10:02:52.634Z,94.24
2022-11-21T10:03:52.623Z,94.13
2022-11-21T10:04:52.632Z,94.03
2022-11-21T10:05:52.611Z,94.13
2022-11-21T10:06:52.611Z,94.24
2022-11-21T10:07:52.694Z,94.24
2022-11-21T10:08:52.570Z,94.24
2022-11-21T10:09:52.566Z,94.13
2022-11-21T10:10:52.550Z,94.03
2022-11-21T10:11:52.550Z,93.93
2022-11-21T10:12:52.537Z,93.93
2022-11-21T10:13:52.531Z,94.13
2022-11-21T10:14:52.550Z,94.24
2022-11-21T10:15:52.499Z,94.34
2022-11-21T10:16:52.491Z,94.34
2022-11-21T10:17:52.485Z,94.34
2022-11-21T10:18:52.474Z,94.34
2022-11-21T10:19:52.453Z,94.34
2022-11-21T10:20:52.455Z,94.34
2022-11-21T10:21:52.443Z,94.45
2022-11-21T10:22:52.465Z,94.56
2022-11-21T10:23:52.470Z,94.66
2022-11-21T10:24:52.404Z,94.66
2022-11-21T10:25:52.407Z,94.66
2022-11-21T10:26:52.390Z,94.76
2022-11-21T10:27:52.370Z,94.76
2022-11-21T10:28:52.390Z,94.76
2022-11-21T10:29:52.360Z,94.66
2022-11-21T10:30:52.351Z,94.34
2022-11-21T10:31:52.321Z,94.13
2022-11-21T10:32:52.314Z,94.24
2022-11-21T10:33:53.218Z,94.13
2022-11-21T10:34:52.300Z,94.24
2022-11-21T10:35:52.280Z,94.24
2022-11-21T10:36:52.277Z,94.24
2022-11-21T10:37:52.257Z,94.24
2022-11-21T10:38:52.636Z,94.24
2022-11-21T10:39:52.248Z,94.24
2022-11-21T10:40:52.306Z,94.13
2022-11-21T10:41:52.281Z,94.13
2022-11-21T10:42:52.209Z,94.09
2022-11-21T10:43:52.191Z,94.20
2022-11-21T10:44:52.200Z,94.30
2022-11-21T10:45:52.173Z,93.88
2022-11-21T10:46:52.176Z,93.74
2022-11-21T10:47:52.165Z,93.74
2022-11-21T10:48:52.164Z,93.63
2022-11-21T10:49:52.164Z,93.63
2022-11-21T10:50:52.192Z,93.52
2022-11-21T10:51:52.149Z,93.32
2022-11-21T10:52:52.106Z,93.01
2022-11-21T10:53:52.096Z,92.58
2022-11-21T10:54:52.086Z,92.69
2022-11-21T10:55:52.103Z,92.69
2022-11-21T10:56:52.067Z,92.79
2022-11-21T10:57:52.047Z,92.90
2022-11-21T10:58:52.049Z,93.01
2022-11-21T10:59:52.055Z,92.79
2022-11-21T11:00:52.072Z,92.69
2022-11-21T11:01:52.015Z,92.38
2022-11-21T11:02:52.009Z,92.31
2022-11-21T11:04:13.514Z,92.52
2022-11-21T11:04:52.643Z,92.63
2022-11-21T11:05:51.975Z,92.73
2022-11-21T11:06:51.951Z,92.94
2022-11-21T11:07:51.999Z,93.15
2022-11-21T11:08:51.940Z,93.26
2022-11-21T11:09:51.924Z,93.04
2022-11-21T11:10:51.945Z,93.04
2022-11-21T11:11:51.915Z,93.15
2022-11-21T11:12:51.910Z,93.36
2022-11-21T11:13:52.079Z,93.46
2022-11-21T11:14:51.876Z,93.57
2022-11-21T11:15:51.868Z,93.52
2022-11-21T11:16:51.864Z,93.32
2022-11-21T11:17:51.837Z,93.21
2022-11-21T11:18:51.875Z,93.21
2022-11-21T11:19:51.805Z,93.21
2022-11-21T11:20:51.799Z,92.94
2022-11-21T11:21:51.811Z,92.94
2022-11-21T11:22:51.781Z,92.90
2022-11-21T11:23:51.771Z,92.79
2022-11-21T11:24:54.987Z,92.69
2022-11-21T11:25:51.757Z,92.69
2022-11-21T11:26:51.781Z,92.69
2022-11-21T11:27:51.717Z,92.27
2022-11-21T11:28:51.715Z,92.06
2022-11-21T11:29:53.099Z,92.06
2022-11-21T11:30:51.696Z,92.06
2022-11-21T11:31:51.731Z,92.16
2022-11-21T11:32:51.727Z,92.16
2022-11-21T11:33:51.679Z,92.27
2022-11-21T11:34:51.655Z,92.10
2022-11-21T11:35:51.647Z,92.00
2022-11-21T11:36:51.642Z,92.00
2022-11-21T11:37:51.625Z,92.00
2022-11-21T11:38:51.628Z,92.00
2022-11-21T11:39:51.615Z,92.10
2022-11-21T11:40:51.596Z,92.27
2022-11-21T11:41:51.582Z,92.27
2022-11-21T11:42:51.588Z,92.38
2022-11-21T11:43:51.587Z,92.27
2022-11-21T11:44:51.559Z,92.27
2022-11-21T11:45:51.530Z,92.38
2022-11-21T11:46:51.550Z,92.38
2022-11-21T11:47:54.670Z,92.13
2022-11-21T11:49:17.373Z,92.02
2022-11-21T11:49:51.494Z,91.81
2022-11-21T11:50:51.490Z,91.43
2022-11-21T11:51:51.473Z,91.54
2022-11-21T11:52:51.504Z,91.54
2022-11-21T11:53:51.449Z,91.64
2022-11-21T11:54:51.445Z,91.75
2022-11-21T11:55:51.422Z,91.85
2022-11-21T11:56:51.463Z,91.96
2022-11-21T11:57:51.415Z,91.85
2022-11-21T11:58:52.026Z,91.96
2022-11-21T11:59:51.380Z,91.96
2022-11-21T12:00:51.371Z,92.06
2022-11-21T12:01:51.390Z,92.16
2022-11-21T12:02:51.375Z,92.16
2022-11-21T12:03:57.682Z,92.16
2022-11-21T12:04:51.334Z,92.27
2022-11-21T12:05:51.342Z,92.38
2022-11-21T12:08:40.193Z,92.69
2022-11-21T12:08:51.350Z,92.79
2022-11-21T12:09:51.301Z,92.90
2022-11-21T12:10:51.305Z,93.11
2022-11-21T12:11:51.252Z,93.32
2022-11-21T12:12:51.246Z,93.42
2022-11-21T12:13:51.236Z,93.42
2022-11-21T12:14:51.238Z,93.52
2022-11-21T12:15:51.308Z,93.32
2022-11-21T12:16:51.208Z,93.36
2022-11-21T12:17:51.214Z,93.46
2022-11-21T12:18:51.210Z,93.57
2022-11-21T12:19:51.259Z,93.67
2022-11-21T12:20:51.161Z,93.78
2022-11-21T12:21:51.161Z,93.88
2022-11-21T12:22:51.141Z,93.88
2022-11-21T12:23:51.144Z,93.84
2022-11-21T12:24:51.149Z,93.88
2022-11-21T12:25:51.098Z,93.99
2022-11-21T12:26:51.128Z,93.95
2022-11-21T12:27:51.081Z,94.05
2022-11-21T12:28:51.109Z,94.15
2022-11-21T12:29:51.097Z,94.15
2022-11-21T12:30:51.630Z,94.26
2022-11-21T12:31:51.053Z,94.15
2022-11-21T12:32:51.041Z,94.05
2022-11-21T12:33:51.019Z,94.15
2022-11-21T12:34:51.030Z,94.15
2022-11-21T12:35:51.010Z,94.05
2022-11-21T12:36:50.994Z,94.20
2022-11-21T12:37:50.974Z,94.15
2022-11-21T12:38:50.973Z,94.30
2022-11-21T12:39:50.949Z,94.40
2022-11-21T12:40:50.971Z,94.46
2022-11-21T12:41:50.950Z,94.46
2022-11-21T12:42:50.948Z,94.46
2022-11-21T12:43:57.266Z,94.57
2022-11-21T12:44:51.661Z,94.57
2022-11-21T12:45:50.893Z,94.46
2022-11-21T12:46:50.896Z,94.46
2022-11-21T12:47:50.897Z,94.36
2022-11-21T12:48:50.861Z,94.46
2022-11-21T12:49:54.680Z,94.46
2022-11-21T12:50:50.842Z,94.46
2022-11-21T12:51:50.886Z,94.36
2022-11-21T12:52:50.838Z,94.36
2022-11-21T12:53:50.815Z,94.36